Dampier, Australia
Current Conditions -  °F | °C
As of 11:00 PM on Tuesday 21 Oct 2014 (Local Time) from YPPD Reporting Station
Clear Clear  
Wind Chill: 75°   Ceiling: Unl
Heat Index: 75°   Visibility: 6mi
Dew Point: 50°   Wind: 8mph
Humidity: 41%   Direction: 240°WSW
Pressure: 29.91"   Gusts: NA
Location:  20.66°S, 116.71°E
Report Text: YPPD 211500Z AUTO 24007KT 9999 // NCD 24/10 Q1013
Loading
Personal Weather Stations






























Interactive Weather Map
Tropical Storm Tracking
New forecast layout! Learn more

10-Day Weather Forecast

Advertisements
Track Severe Weather on mobile